sensor_id;sensor_type;location;lat;lon;timestamp;pressure;altitude;pressure_sealevel;temperature;humidity
26978;BME280;56314;48.088;11.642;2022-09-17T00:00:07;94921.63;;;10.22;100.00
26978;BME280;56314;48.088;11.642;2022-09-17T00:02:33;94922.69;;;10.20;100.00
26978;BME280;56314;48.088;11.642;2022-09-17T00:04:58;94929.28;;;10.14;99.69
26978;BME280;56314;48.088;11.642;2022-09-17T00:07:24;94933.81;;;10.12;99.97
26978;BME280;56314;48.088;11.642;2022-09-17T00:09:49;94935.22;;;10.16;100.00
26978;BME280;56314;48.088;11.642;2022-09-17T00:12:14;94931.19;;;10.12;100.00
26978;BME280;56314;48.088;11.642;2022-09-17T00:14:40;94939.56;;;10.06;99.83
26978;BME280;56314;48.088;11.642;2022-09-17T00:17:05;94940.38;;;10.06;100.00
26978;BME280;56314;48.088;11.642;2022-09-17T00:19:30;94935.22;;;10.16;100.00
26978;BME280;56314;48.088;11.642;2022-09-17T00:21:56;94927.22;;;10.17;100.00
26978;BME280;56314;48.088;11.642;2022-09-17T00:24:21;94926.84;;;10.22;100.00
26978;BME280;56314;48.088;11.642;2022-09-17T00:26:47;94928.88;;;10.19;100.00
26978;BME280;56314;48.088;11.642;2022-09-17T00:29:13;94936.19;;;10.15;100.00
26978;BME280;56314;48.088;11.642;2022-09-17T00:31:39;94934.47;;;10.04;99.88
26978;BME280;56314;48.088;11.642;2022-09-17T00:34:05;94938.72;;;10.05;100.00
26978;BME280;56314;48.088;11.642;2022-09-17T00:36:33;94936.75;;;9.97;98.30
26978;BME280;56314;48.088;11.642;2022-09-17T00:38:59;94941.00;;;9.98;98.42
26978;BME280;56314;48.088;11.642;2022-09-17T00:41:27;94941.63;;;10.02;99.80
26978;BME280;56314;48.088;11.642;2022-09-17T00:43:58;94942.19;;;10.06;100.00
26978;BME280;56314;48.088;11.642;2022-09-17T00:46:34;94946.25;;;9.98;99.15
26978;BME280;56314;48.088;11.642;2022-09-17T00:49:06;94945.06;;;10.02;99.21
26978;BME280;56314;48.088;11.642;2022-09-17T00:51:42;94946.03;;;10.01;98.82
26978;BME280;56314;48.088;11.642;2022-09-17T00:54:09;94957.47;;;10.00;99.09
26978;BME280;56314;48.088;11.642;2022-09-17T00:56:38;94956.66;;;10.00;99.76
26978;BME280;56314;48.088;11.642;2022-09-17T00:59:04;94951.88;;;9.94;98.85
26978;BME280;56314;48.088;11.642;2022-09-17T01:01:31;94956.44;;;9.92;97.48
26978;BME280;56314;48.088;11.642;2022-09-17T01:03:56;94959.19;;;9.90;97.63
26978;BME280;56314;48.088;11.642;2022-09-17T01:06:40;94950.22;;;9.93;98.57
26978;BME280;56314;48.088;11.642;2022-09-17T01:12:35;94957.03;;;9.95;98.50
26978;BME280;56314;48.088;11.642;2022-09-17T01:15:38;94955.38;;;9.94;98.62
26978;BME280;56314;48.088;11.642;2022-09-17T01:18:16;94952.78;;;9.83;95.91
26978;BME280;56314;48.088;11.642;2022-09-17T01:29:06;94944.44;;;9.78;96.15
26978;BME280;56314;48.088;11.642;2022-09-17T01:32:10;94950.53;;;9.78;96.65
26978;BME280;56314;48.088;11.642;2022-09-17T01:37:30;94949.25;;;9.73;95.45
26978;BME280;56314;48.088;11.642;2022-09-17T01:40:05;94950.78;;;9.75;95.68
26978;BME280;56314;48.088;11.642;2022-09-17T01:45:38;94939.56;;;9.73;97.00
26978;BME280;56314;48.088;11.642;2022-09-17T01:48:13;94941.47;;;9.71;96.89
26978;BME280;56314;48.088;11.642;2022-09-17T01:50:47;94935.44;;;9.70;97.68
26978;BME280;56314;48.088;11.642;2022-09-17T01:53:16;94941.03;;;9.66;97.43
26978;BME280;56314;48.088;11.642;2022-09-17T01:55:44;94940.34;;;9.64;97.36
26978;BME280;56314;48.088;11.642;2022-09-17T01:58:16;94949.00;;;9.64;97.18
26978;BME280;56314;48.088;11.642;2022-09-17T02:00:49;94954.25;;;9.64;97.48
26978;BME280;56314;48.088;11.642;2022-09-17T02:03:23;94947.00;;;9.68;97.81
26978;BME280;56314;48.088;11.642;2022-09-17T02:05:55;94946.00;;;9.69;98.38
26978;BME280;56314;48.088;11.642;2022-09-17T02:08:25;94948.91;;;9.66;97.88
26978;BME280;56314;48.088;11.642;2022-09-17T02:11:12;94941.28;;;9.63;97.44
26978;BME280;56314;48.088;11.642;2022-09-17T02:14:05;94944.16;;;9.60;96.80
26978;BME280;56314;48.088;11.642;2022-09-17T02:16:34;94948.00;;;9.55;96.79
26978;BME280;56314;48.088;11.642;2022-09-17T02:19:22;94943.44;;;9.58;97.24
26978;BME280;56314;48.088;11.642;2022-09-17T02:27:47;94935.94;;;9.53;96.07
26978;BME280;56314;48.088;11.642;2022-09-17T02:30:13;94933.31;;;9.53;96.98
26978;BME280;56314;48.088;11.642;2022-09-17T02:32:39;94930.84;;;9.51;96.62
26978;BME280;56314;48.088;11.642;2022-09-17T02:35:05;94929.41;;;9.47;96.36
26978;BME280;56314;48.088;11.642;2022-09-17T02:37:31;94921.31;;;9.50;96.29
26978;BME280;56314;48.088;11.642;2022-09-17T02:39:56;94921.31;;;9.50;96.40
26978;BME280;56314;48.088;11.642;2022-09-17T02:42:27;94912.25;;;9.54;96.56
26978;BME280;56314;48.088;11.642;2022-09-17T02:50:26;94900.72;;;9.46;94.28
26978;BME280;56314;48.088;11.642;2022-09-17T03:01:22;94873.34;;;9.27;92.63
26978;BME280;56314;48.088;11.642;2022-09-17T03:03:50;94878.34;;;9.30;92.33
26978;BME280;56314;48.088;11.642;2022-09-17T03:06:18;94875.53;;;9.22;91.64
26978;BME280;56314;48.088;11.642;2022-09-17T03:08:44;94880.06;;;9.20;91.65
26978;BME280;56314;48.088;11.642;2022-09-17T03:11:11;94879.84;;;9.12;91.92
26978;BME280;56314;48.088;11.642;2022-09-17T03:13:38;94886.75;;;9.13;91.34
26978;BME280;56314;48.088;11.642;2022-09-17T03:16:04;94889.59;;;9.09;90.57
26978;BME280;56314;48.088;11.642;2022-09-17T03:18:30;94881.75;;;9.09;89.33
26978;BME280;56314;48.088;11.642;2022-09-17T03:20:55;94883.16;;;9.02;89.82
26978;BME280;56314;48.088;11.642;2022-09-17T03:23:21;94891.16;;;9.01;90.29
26978;BME280;56314;48.088;11.642;2022-09-17T03:25:46;94892.69;;;9.03;88.16
26978;BME280;56314;48.088;11.642;2022-09-17T03:28:14;94898.78;;;9.04;89.61
26978;BME280;56314;48.088;11.642;2022-09-17T03:30:39;94891.53;;;8.96;89.21
26978;BME280;56314;48.088;11.642;2022-09-17T03:33:05;94888.78;;;8.98;90.45
26978;BME280;56314;48.088;11.642;2022-09-17T03:35:30;94892.69;;;8.92;90.92
26978;BME280;56314;48.088;11.642;2022-09-17T03:37:55;94897.94;;;8.92;90.93
26978;BME280;56314;48.088;11.642;2022-09-17T03:40:21;94894.16;;;8.85;89.69
26978;BME280;56314;48.088;11.642;2022-09-17T03:42:47;94899.75;;;8.80;90.36
26978;BME280;56314;48.088;11.642;2022-09-17T03:45:12;94898.69;;;8.71;90.39
26978;BME280;56314;48.088;11.642;2022-09-17T03:47:38;94901.78;;;8.76;92.02
26978;BME280;56314;48.088;11.642;2022-09-17T03:50:04;94904.28;;;8.78;91.94
26978;BME280;56314;48.088;11.642;2022-09-17T03:52:30;94903.69;;;8.74;92.13
26978;BME280;56314;48.088;11.642;2022-09-17T03:54:55;94902.00;;;8.73;91.85
26978;BME280;56314;48.088;11.642;2022-09-17T03:57:20;94906.66;;;8.70;91.74
26978;BME280;56314;48.088;11.642;2022-09-17T03:59:47;94909.28;;;8.81;94.66
26978;BME280;56314;48.088;11.642;2022-09-17T04:02:12;94902.47;;;8.78;94.47
26978;BME280;56314;48.088;11.642;2022-09-17T04:04:37;94897.38;;;8.77;93.32
26978;BME280;56314;48.088;11.642;2022-09-17T04:07:03;94894.28;;;8.83;94.77
26978;BME280;56314;48.088;11.642;2022-09-17T04:09:28;94893.91;;;8.88;94.60
26978;BME280;56314;48.088;11.642;2022-09-17T04:11:55;94895.69;;;8.87;95.10
26978;BME280;56314;48.088;11.642;2022-09-17T04:14:20;94902.72;;;8.87;95.12
26978;BME280;56314;48.088;11.642;2022-09-17T04:16:45;94899.38;;;8.85;94.59
26978;BME280;56314;48.088;11.642;2022-09-17T04:19:11;94900.56;;;8.81;94.14
26978;BME280;56314;48.088;11.642;2022-09-17T04:21:36;94895.59;;;8.77;93.75
26978;BME280;56314;48.088;11.642;2022-09-17T04:24:02;94891.66;;;8.83;95.14
26978;BME280;56314;48.088;11.642;2022-09-17T04:26:27;94890.81;;;8.83;94.77
26978;BME280;56314;48.088;11.642;2022-09-17T04:28:53;94897.25;;;8.90;94.58
26978;BME280;56314;48.088;11.642;2022-09-17T04:31:18;94910.69;;;8.85;92.53
26978;BME280;56314;48.088;11.642;2022-09-17T04:33:43;94924.38;;;8.89;92.71
26978;BME280;56314;48.088;11.642;2022-09-17T04:36:09;94931.41;;;8.88;92.61
26978;BME280;56314;48.088;11.642;2022-09-17T04:38:34;94935.69;;;8.89;93.30
26978;BME280;56314;48.088;11.642;2022-09-17T04:41:00;94940.31;;;8.97;94.43
26978;BME280;56314;48.088;11.642;2022-09-17T04:43:25;94935.69;;;9.01;93.32
26978;BME280;56314;48.088;11.642;2022-09-17T04:45:50;94934.25;;;8.97;92.15
26978;BME280;56314;48.088;11.642;2022-09-17T04:48:16;94946.03;;;8.91;92.46
26978;BME280;56314;48.088;11.642;2022-09-17T04:50:42;94958.66;;;8.97;94.29
26978;BME280;56314;48.088;11.642;2022-09-17T04:53:07;94974.25;;;8.99;94.79
26978;BME280;56314;48.088;11.642;2022-09-17T04:55:33;94976.28;;;8.95;90.94
26978;BME280;56314;48.088;11.642;2022-09-17T04:57:58;94979.97;;;8.92;90.79
26978;BME280;56314;48.088;11.642;2022-09-17T05:00:24;94983.41;;;8.93;91.64
26978;BME280;56314;48.088;11.642;2022-09-17T05:02:51;94982.44;;;8.94;89.83
26978;BME280;56314;48.088;11.642;2022-09-17T05:05:17;94984.97;;;8.96;92.30
26978;BME280;56314;48.088;11.642;2022-09-17T05:07:43;94988.41;;;8.96;92.22
26978;BME280;56314;48.088;11.642;2022-09-17T05:10:11;94983.03;;;8.98;92.62
26978;BME280;56314;48.088;11.642;2022-09-17T05:12:37;94990.91;;;8.98;91.99
26978;BME280;56314;48.088;11.642;2022-09-17T05:15:03;94996.75;;;8.90;90.82
26978;BME280;56314;48.088;11.642;2022-09-17T05:17:28;95005.31;;;8.92;90.84
26978;BME280;56314;48.088;11.642;2022-09-17T05:19:54;95008.78;;;8.92;91.99
26978;BME280;56314;48.088;11.642;2022-09-17T05:22:19;95010.44;;;8.93;91.54
26978;BME280;56314;48.088;11.642;2022-09-17T05:24:45;95019.97;;;8.95;90.63
26978;BME280;56314;48.088;11.642;2022-09-17T05:27:10;95019.34;;;8.91;90.20
26978;BME280;56314;48.088;11.642;2022-09-17T05:29:35;95022.69;;;8.93;89.89
26978;BME280;56314;48.088;11.642;2022-09-17T05:32:05;95024.47;;;8.92;90.51
26978;BME280;56314;48.088;11.642;2022-09-17T05:34:30;95031.75;;;8.89;89.40
26978;BME280;56314;48.088;11.642;2022-09-17T05:36:56;95037.09;;;8.87;89.98
26978;BME280;56314;48.088;11.642;2022-09-17T05:39:21;95045.88;;;8.86;89.90
26978;BME280;56314;48.088;11.642;2022-09-17T05:41:52;95042.53;;;8.84;89.24
26978;BME280;56314;48.088;11.642;2022-09-17T05:44:18;95039.69;;;8.87;90.37
26978;BME280;56314;48.088;11.642;2022-09-17T05:46:44;95049.94;;;8.90;89.83
26978;BME280;56314;48.088;11.642;2022-09-17T05:49:10;95055.06;;;8.92;90.88
26978;BME280;56314;48.088;11.642;2022-09-17T05:51:35;95052.81;;;8.99;90.92
26978;BME280;56314;48.088;11.642;2022-09-17T05:54:01;95061.50;;;8.99;90.90
26978;BME280;56314;48.088;11.642;2022-09-17T05:56:26;95058.91;;;8.99;92.40
26978;BME280;56314;48.088;11.642;2022-09-17T05:58:55;95062.22;;;9.01;94.49
26978;BME280;56314;48.088;11.642;2022-09-17T06:01:21;95063.75;;;8.92;94.70
26978;BME280;56314;48.088;11.642;2022-09-17T06:03:46;95062.81;;;8.93;97.06
26978;BME280;56314;48.088;11.642;2022-09-17T06:06:12;95057.22;;;8.98;98.01
26978;BME280;56314;48.088;11.642;2022-09-17T06:08:37;95060.06;;;8.95;98.04
26978;BME280;56314;48.088;11.642;2022-09-17T06:11:04;95056.88;;;9.03;98.68
26978;BME280;56314;48.088;11.642;2022-09-17T06:13:29;95054.97;;;8.93;97.81
26978;BME280;56314;48.088;11.642;2022-09-17T06:15:55;95050.91;;;8.89;97.39
26978;BME280;56314;48.088;11.642;2022-09-17T06:18:20;95049.47;;;8.97;98.41
26978;BME280;56314;48.088;11.642;2022-09-17T06:20:56;95054.25;;;9.03;97.97
26978;BME280;56314;48.088;11.642;2022-09-17T06:23:22;95052.47;;;9.15;97.14
26978;BME280;56314;48.088;11.642;2022-09-17T06:25:55;95058.56;;;9.27;95.67
26978;BME280;56314;48.088;11.642;2022-09-17T06:28:21;95056.16;;;9.23;92.54
26978;BME280;56314;48.088;11.642;2022-09-17T06:30:46;95056.75;;;9.27;92.08
26978;BME280;56314;48.088;11.642;2022-09-17T06:33:12;95049.88;;;9.37;93.51
26978;BME280;56314;48.088;11.642;2022-09-17T06:35:38;95053.44;;;9.36;93.77
26978;BME280;56314;48.088;11.642;2022-09-17T06:38:04;95052.72;;;9.46;94.20
26978;BME280;56314;48.088;11.642;2022-09-17T06:40:29;95056.63;;;9.51;92.99
26978;BME280;56314;48.088;11.642;2022-09-17T06:42:58;95052.13;;;9.53;92.46
26978;BME280;56314;48.088;11.642;2022-09-17T06:45:25;95046.53;;;9.47;89.24
26978;BME280;56314;48.088;11.642;2022-09-17T06:47:50;95049.88;;;9.49;89.91
26978;BME280;56314;48.088;11.642;2022-09-17T06:50:16;95036.03;;;9.58;90.00
26978;BME280;56314;48.088;11.642;2022-09-17T06:52:48;95047.59;;;9.55;87.17
26978;BME280;56314;48.088;11.642;2022-09-17T06:55:14;95048.78;;;9.51;85.68
26978;BME280;56314;48.088;11.642;2022-09-17T06:57:40;95058.78;;;9.46;85.55
26978;BME280;56314;48.088;11.642;2022-09-17T07:00:06;95055.09;;;9.37;84.18
26978;BME280;56314;48.088;11.642;2022-09-17T07:02:31;95049.88;;;9.49;85.90
26978;BME280;56314;48.088;11.642;2022-09-17T07:04:57;95047.69;;;9.54;85.56
26978;BME280;56314;48.088;11.642;2022-09-17T07:07:22;95041.25;;;9.69;87.27
26978;BME280;56314;48.088;11.642;2022-09-17T07:09:47;95037.06;;;9.78;84.82
26978;BME280;56314;48.088;11.642;2022-09-17T07:12:13;95034.81;;;9.74;81.94
26978;BME280;56314;48.088;11.642;2022-09-17T07:14:38;95044.84;;;9.57;81.89
26978;BME280;56314;48.088;11.642;2022-09-17T07:17:04;95045.22;;;9.52;83.88
26978;BME280;56314;48.088;11.642;2022-09-17T07:19:29;95057.47;;;9.40;83.45
26978;BME280;56314;48.088;11.642;2022-09-17T07:21:54;95053.91;;;9.30;82.65
26978;BME280;56314;48.088;11.642;2022-09-17T07:24:20;95072.59;;;9.37;84.75
26978;BME280;56314;48.088;11.642;2022-09-17T07:26:45;95060.34;;;9.49;84.46
26978;BME280;56314;48.088;11.642;2022-09-17T07:29:10;95059.38;;;9.61;82.89
26978;BME280;56314;48.088;11.642;2022-09-17T07:31:36;95052.81;;;9.78;83.07
26978;BME280;56314;48.088;11.642;2022-09-17T07:34:02;95052.31;;;9.84;83.91
26978;BME280;56314;48.088;11.642;2022-09-17T07:36:27;95056.09;;;10.03;81.45
26978;BME280;56314;48.088;11.642;2022-09-17T07:38:53;95046.84;;;10.20;81.25
26978;BME280;56314;48.088;11.642;2022-09-17T07:41:18;95044.53;;;10.59;80.15
26978;BME280;56314;48.088;11.642;2022-09-17T07:43:44;95045.25;;;10.61;74.00
26978;BME280;56314;48.088;11.642;2022-09-17T07:46:14;95031.94;;;10.74;75.38
26978;BME280;56314;48.088;11.642;2022-09-17T07:48:40;95035.69;;;11.24;74.41
26978;BME280;56314;48.088;11.642;2022-09-17T07:51:06;95039.03;;;11.77;76.25
26978;BME280;56314;48.088;11.642;2022-09-17T07:53:31;95029.47;;;11.76;72.25
26978;BME280;56314;48.088;11.642;2022-09-17T07:56:00;95022.34;;;11.57;69.49
26978;BME280;56314;48.088;11.642;2022-09-17T07:58:31;95033.13;;;11.44;69.11
26978;BME280;56314;48.088;11.642;2022-09-17T08:01:05;95035.84;;;11.32;68.66
26978;BME280;56314;48.088;11.642;2022-09-17T08:03:31;95038.88;;;11.28;68.94
26978;BME280;56314;48.088;11.642;2022-09-17T08:06:07;95039.94;;;10.94;69.00
26978;BME280;56314;48.088;11.642;2022-09-17T08:08:34;95053.88;;;10.94;71.53
26978;BME280;56314;48.088;11.642;2022-09-17T08:11:08;95051.53;;;10.91;70.80
26978;BME280;56314;48.088;11.642;2022-09-17T08:13:34;95049.16;;;10.88;68.64
26978;BME280;56314;48.088;11.642;2022-09-17T08:16:05;95057.06;;;10.88;69.99
26978;BME280;56314;48.088;11.642;2022-09-17T08:18:31;95052.19;;;10.84;72.08
26978;BME280;56314;48.088;11.642;2022-09-17T08:20:58;95067.03;;;10.94;71.11
26978;BME280;56314;48.088;11.642;2022-09-17T08:23:25;95066.91;;;11.17;71.17
26978;BME280;56314;48.088;11.642;2022-09-17T08:25:54;95062.44;;;11.39;69.47
26978;BME280;56314;48.088;11.642;2022-09-17T08:28:20;95065.47;;;11.75;69.85
26978;BME280;56314;48.088;11.642;2022-09-17T08:30:46;95061.59;;;12.20;65.24
26978;BME280;56314;48.088;11.642;2022-09-17T08:33:12;95053.44;;;12.62;65.14
26978;BME280;56314;48.088;11.642;2022-09-17T08:35:38;95053.81;;;12.97;64.87
26978;BME280;56314;48.088;11.642;2022-09-17T08:38:03;95057.63;;;13.13;60.83
26978;BME280;56314;48.088;11.642;2022-09-17T08:40:28;95068.59;;;13.18;61.45
26978;BME280;56314;48.088;11.642;2022-09-17T08:43:00;95066.50;;;13.21;60.32
26978;BME280;56314;48.088;11.642;2022-09-17T08:45:27;95062.44;;;13.47;61.94
26978;BME280;56314;48.088;11.642;2022-09-17T08:47:55;95064.31;;;13.64;60.30
26978;BME280;56314;48.088;11.642;2022-09-17T08:50:30;95060.72;;;13.55;60.24
26978;BME280;56314;48.088;11.642;2022-09-17T08:53:29;95066.41;;;13.13;58.82
26978;BME280;56314;48.088;11.642;2022-09-17T08:56:09;95066.88;;;12.50;59.14
26978;BME280;56314;48.088;11.642;2022-09-17T09:09:43;95093.63;;;11.01;66.84
26978;BME280;56314;48.088;11.642;2022-09-17T09:12:15;95101.00;;;11.07;69.11
26978;BME280;56314;48.088;11.642;2022-09-17T09:14:53;95091.06;;;11.11;68.79
26978;BME280;56314;48.088;11.642;2022-09-17T09:17:21;95096.31;;;11.11;67.60
26978;BME280;56314;48.088;11.642;2022-09-17T09:19:50;95095.94;;;11.16;70.56
26978;BME280;56314;48.088;11.642;2022-09-17T09:28:10;95096.31;;;11.11;68.41
26978;BME280;56314;48.088;11.642;2022-09-17T09:31:33;95097.75;;;11.15;69.42
26978;BME280;56314;48.088;11.642;2022-09-17T09:33:40;95089.78;;;11.27;68.47
26978;BME280;56314;48.088;11.642;2022-09-17T09:36:10;95088.94;;;11.26;67.93
26978;BME280;56314;48.088;11.642;2022-09-17T09:38:50;95097.53;;;11.28;68.13
26978;BME280;56314;48.088;11.642;2022-09-17T09:41:54;95101.06;;;11.17;67.62
26978;BME280;56314;48.088;11.642;2022-09-17T09:44:23;95103.00;;;11.15;67.91
26978;BME280;56314;48.088;11.642;2022-09-17T09:49:35;95108.19;;;11.05;70.48
26978;BME280;56314;48.088;11.642;2022-09-17T09:55:09;95112.84;;;10.81;74.07
26978;BME280;56314;48.088;11.642;2022-09-17T09:57:47;95105.50;;;10.74;73.40
26978;BME280;56314;48.088;11.642;2022-09-17T10:00:27;95111.19;;;10.80;74.82
26978;BME280;56314;48.088;11.642;2022-09-17T10:05:24;95100.63;;;11.12;71.71
26978;BME280;56314;48.088;11.642;2022-09-17T10:07:50;95103.50;;;11.09;72.56
26978;BME280;56314;48.088;11.642;2022-09-17T10:10:15;95113.97;;;10.99;76.35
26978;BME280;56314;48.088;11.642;2022-09-17T10:12:41;95115.84;;;10.76;75.85
26978;BME280;56314;48.088;11.642;2022-09-17T10:15:24;95115.44;;;10.59;76.54
26978;BME280;56314;48.088;11.642;2022-09-17T10:18:17;95124.31;;;10.47;78.51
26978;BME280;56314;48.088;11.642;2022-09-17T10:20:57;95118.84;;;10.39;80.98
26978;BME280;56314;48.088;11.642;2022-09-17T10:23:25;95119.94;;;10.25;80.13
26978;BME280;56314;48.088;11.642;2022-09-17T10:25:52;95123.66;;;10.22;83.03
26978;BME280;56314;48.088;11.642;2022-09-17T10:28:42;95124.63;;;10.10;81.77
26978;BME280;56314;48.088;11.642;2022-09-17T10:31:10;95130.56;;;10.12;85.81
26978;BME280;56314;48.088;11.642;2022-09-17T10:34:02;95137.66;;;9.89;84.28
26978;BME280;56314;48.088;11.642;2022-09-17T10:41:55;95128.13;;;9.53;90.25
26978;BME280;56314;48.088;11.642;2022-09-17T10:44:23;95133.13;;;9.57;91.88
26978;BME280;56314;48.088;11.642;2022-09-17T10:46:52;95134.56;;;9.49;91.04
26978;BME280;56314;48.088;11.642;2022-09-17T10:51:43;95120.25;;;9.76;96.82
26978;BME280;56314;48.088;11.642;2022-09-17T10:56:39;95125.94;;;9.93;94.13
26978;BME280;56314;48.088;11.642;2022-09-17T11:05:44;95117.81;;;10.19;91.58
26978;BME280;56314;48.088;11.642;2022-09-17T11:14:05;95130.53;;;10.23;90.79
26978;BME280;56314;48.088;11.642;2022-09-17T11:19:30;95122.69;;;10.12;87.97
26978;BME280;56314;48.088;11.642;2022-09-17T11:22:04;95116.78;;;10.10;91.04
26978;BME280;56314;48.088;11.642;2022-09-17T11:30:09;95117.75;;;9.97;89.05
26978;BME280;56314;48.088;11.642;2022-09-17T11:35:18;95119.69;;;9.73;90.28
26978;BME280;56314;48.088;11.642;2022-09-17T11:37:55;95117.41;;;9.68;90.55
26978;BME280;56314;48.088;11.642;2022-09-17T11:43:11;95109.16;;;10.51;90.74
26978;BME280;56314;48.088;11.642;2022-09-17T11:45:46;95103.25;;;11.12;89.64
26978;BME280;56314;48.088;11.642;2022-09-17T11:48:38;95101.06;;;11.17;83.98
26978;BME280;56314;48.088;11.642;2022-09-17T11:53:54;95109.84;;;10.85;85.03
26978;BME280;56314;48.088;11.642;2022-09-17T11:56:34;95101.72;;;11.40;89.17
26978;BME280;56314;48.088;11.642;2022-09-17T11:59:24;95092.25;;;11.90;85.21
26978;BME280;56314;48.088;11.642;2022-09-17T12:04:36;95085.19;;;11.91;79.94
26978;BME280;56314;48.088;11.642;2022-09-17T12:10:34;95081.47;;;11.52;83.96
26978;BME280;56314;48.088;11.642;2022-09-17T12:15:46;95071.44;;;11.87;81.84
26978;BME280;56314;48.088;11.642;2022-09-17T12:20:48;95064.00;;;13.39;72.85
26978;BME280;56314;48.088;11.642;2022-09-17T12:23:26;95062.75;;;13.72;69.96
26978;BME280;56314;48.088;11.642;2022-09-17T12:26:04;95061.84;;;13.53;68.37
26978;BME280;56314;48.088;11.642;2022-09-17T12:28:38;95074.31;;;13.13;71.48
26978;BME280;56314;48.088;11.642;2022-09-17T12:31:20;95078.25;;;12.60;71.89
26978;BME280;56314;48.088;11.642;2022-09-17T12:36:41;95071.16;;;11.80;75.52
26978;BME280;56314;48.088;11.642;2022-09-17T12:45:13;95073.59;;;10.79;74.93
26978;BME280;56314;48.088;11.642;2022-09-17T12:50:40;95079.34;;;10.73;84.09
26978;BME280;56314;48.088;11.642;2022-09-17T13:01:03;95077.03;;;10.58;86.76
26978;BME280;56314;48.088;11.642;2022-09-17T13:03:34;95062.63;;;10.95;86.80
26978;BME280;56314;48.088;11.642;2022-09-17T13:06:29;95058.50;;;11.54;83.86
26978;BME280;56314;48.088;11.642;2022-09-17T13:09:02;95054.94;;;12.36;85.04
26978;BME280;56314;48.088;11.642;2022-09-17T13:11:46;95037.28;;;13.05;74.50
26978;BME280;56314;48.088;11.642;2022-09-17T13:14:23;95041.44;;;13.55;74.73
26978;BME280;56314;48.088;11.642;2022-09-17T13:17:05;95039.69;;;13.46;74.91
26978;BME280;56314;48.088;11.642;2022-09-17T13:19:57;95049.19;;;12.99;75.40
26978;BME280;56314;48.088;11.642;2022-09-17T13:22:29;95052.59;;;12.62;74.95
26978;BME280;56314;48.088;11.642;2022-09-17T13:25:05;95053.41;;;12.13;74.31
26978;BME280;56314;48.088;11.642;2022-09-17T13:27:32;95055.66;;;11.87;78.29
26978;BME280;56314;48.088;11.642;2022-09-17T13:29:59;95049.91;;;11.52;79.63
26978;BME280;56314;48.088;11.642;2022-09-17T13:38:03;95051.25;;;11.16;83.98
26978;BME280;56314;48.088;11.642;2022-09-17T13:40:30;95056.75;;;11.13;84.58
26978;BME280;56314;48.088;11.642;2022-09-17T13:43:07;95054.59;;;11.18;86.46
26978;BME280;56314;48.088;11.642;2022-09-17T13:48:30;95064.47;;;11.04;84.06
26978;BME280;56314;48.088;11.642;2022-09-17T13:50:56;95073.28;;;10.93;84.62
26978;BME280;56314;48.088;11.642;2022-09-17T13:53:24;95079.28;;;10.84;87.85
26978;BME280;56314;48.088;11.642;2022-09-17T13:55:52;95098.72;;;10.60;84.54
26978;BME280;56314;48.088;11.642;2022-09-17T14:05:53;95070.41;;;10.43;91.67
26978;BME280;56314;48.088;11.642;2022-09-17T14:08:29;95071.91;;;10.57;91.33
26978;BME280;56314;48.088;11.642;2022-09-17T14:10:57;95072.09;;;10.65;90.95
26978;BME280;56314;48.088;11.642;2022-09-17T14:13:38;95071.66;;;10.81;90.48
26978;BME280;56314;48.088;11.642;2022-09-17T14:29:46;95058.31;;;11.15;83.83
26978;BME280;56314;48.088;11.642;2022-09-17T14:32:17;95046.13;;;11.14;82.69
26978;BME280;56314;48.088;11.642;2022-09-17T14:34:45;95054.81;;;11.05;79.57
26978;BME280;56314;48.088;11.642;2022-09-17T14:37:14;95056.81;;;10.91;79.44
26978;BME280;56314;48.088;11.642;2022-09-17T14:39:40;95057.19;;;10.87;81.85
26978;BME280;56314;48.088;11.642;2022-09-17T14:42:13;95058.53;;;10.81;85.18
26978;BME280;56314;48.088;11.642;2022-09-17T14:44:53;95059.19;;;10.73;84.58
26978;BME280;56314;48.088;11.642;2022-09-17T14:47:20;95063.00;;;10.69;83.90
26978;BME280;56314;48.088;11.642;2022-09-17T14:49:46;95069.16;;;10.58;81.01
26978;BME280;56314;48.088;11.642;2022-09-17T14:52:24;95081.69;;;10.55;81.23
26978;BME280;56314;48.088;11.642;2022-09-17T14:57:39;95079.13;;;10.32;90.40
26978;BME280;56314;48.088;11.642;2022-09-17T15:00:11;95079.53;;;10.16;93.75
26978;BME280;56314;48.088;11.642;2022-09-17T15:02:43;95080.28;;;10.07;95.30
26978;BME280;56314;48.088;11.642;2022-09-17T15:05:19;95075.47;;;10.12;96.73
26978;BME280;56314;48.088;11.642;2022-09-17T15:07:46;95077.53;;;10.08;96.96
26978;BME280;56314;48.088;11.642;2022-09-17T15:10:14;95073.13;;;10.09;98.25
26978;BME280;56314;48.088;11.642;2022-09-17T15:12:41;95093.75;;;10.02;97.58
26978;BME280;56314;48.088;11.642;2022-09-17T15:15:19;95101.06;;;9.76;91.05
26978;BME280;56314;48.088;11.642;2022-09-17T15:17:45;95094.78;;;9.67;91.30
26978;BME280;56314;48.088;11.642;2022-09-17T15:20:16;95100.13;;;9.65;91.45
26978;BME280;56314;48.088;11.642;2022-09-17T15:22:44;95106.06;;;9.67;91.41
26978;BME280;56314;48.088;11.642;2022-09-17T15:25:20;95118.00;;;9.72;89.23
26978;BME280;56314;48.088;11.642;2022-09-17T15:27:49;95119.53;;;9.85;92.70
26978;BME280;56314;48.088;11.642;2022-09-17T15:30:21;95115.75;;;9.78;87.13
26978;BME280;56314;48.088;11.642;2022-09-17T15:32:48;95125.38;;;9.78;88.74
26978;BME280;56314;48.088;11.642;2022-09-17T15:37:45;95125.97;;;9.70;89.24
26978;BME280;56314;48.088;11.642;2022-09-17T15:40:24;95123.34;;;9.47;83.47
26978;BME280;56314;48.088;11.642;2022-09-17T15:43:00;95129.06;;;9.30;81.38
26978;BME280;56314;48.088;11.642;2022-09-17T15:45:29;95127.50;;;9.27;86.69
26978;BME280;56314;48.088;11.642;2022-09-17T15:48:00;95119.25;;;9.20;89.05
26978;BME280;56314;48.088;11.642;2022-09-17T15:50:30;95131.03;;;9.15;88.71
26978;BME280;56314;48.088;11.642;2022-09-17T15:53:10;95132.97;;;9.13;89.54
26978;BME280;56314;48.088;11.642;2022-09-17T15:55:41;95139.28;;;9.21;91.96